Fort Wayne (FWA/KFWA)

Map

Destinations

Information

Location
Fort Wayne, IN
Local Time
20:12 / 8:12 pm
GMT Time
00:12 / 12:12 am
Gates
7
No FAA reported delays
METAR KFWA 252354Z 14008KT 10SM FEW060 BKN250 23/12 A2964 RMK AO2 SLP034 T02280117 10244 20211 56015 $
TAF KFWA 252339Z 2600/2624 15010KT P6SM SCT250 FM261300 17014G22KT P6SM BKN150 FM261900 19016G24KT P6SM SCT040 BKN100